»·PEaware :: N261MG KMSO-KOLM

N261MG :: KMSO-KOLM

FLIGHT INFORMATION

Flight Status: Arrived
Operator: Privately registered:
United States
More flights under this callsign
Pilot: Marty O. (15602)
Aircraft: ECLIPSE 500
(EA50)
More flights by this aircraft type
Origin: KMSO Missoula Intl
United States
Destination: KOLM Olympia
United States
More flights between these airports :: More routes between these airports
Route: +MZULA5 MLP ODESS J34 OLM
File this flight plan on PilotEdge
Remarks:
Altitude:
(Current/Filed)
40,000ft
Speed:
(Current/Filed)
380kts
Departed: 03-Nov-20 07:46 PM
Arrived: 03-Nov-20 09:28 PM
Distance/Time
Traveled:
361nm/1:42
Distance/Time
To Go:
Arrived

Flight Plot

Page will automatically refresh every two minutes.

Flight plan parsing failed; only flown route is shown


Map Options




Map Legend


Flown Route
Filed Route
Departure Airport
Arrival Airport
Navaid (VOR, NDB)
Fix

Horizontal Profiles

Position Reports

Time Latitude Longitude Heading Altitude Ground
Speed
03-Nov-20 19:22 46.914967 -114.077820 132 3209ft 0kts
03-Nov-20 19:23 46.914967 -114.077820 132 3209ft 0kts
03-Nov-20 19:24 46.914967 -114.077820 132 3209ft 0kts
03-Nov-20 19:25 46.914967 -114.077820 132 3209ft 0kts
03-Nov-20 19:26 46.914967 -114.077820 132 3209ft 0kts
03-Nov-20 19:27 46.914967 -114.077820 132 3209ft 0kts
03-Nov-20 19:28 46.914967 -114.077820 132 3209ft 0kts
03-Nov-20 19:29 46.914967 -114.077820 132 3209ft 0kts
03-Nov-20 19:30 46.914967 -114.077820 132 3209ft 0kts
03-Nov-20 19:31 46.914967 -114.077820 132 3209ft 0kts
03-Nov-20 19:32 46.914967 -114.077820 132 3209ft 0kts
03-Nov-20 19:33 46.914967 -114.077820 132 3209ft 0kts
03-Nov-20 19:34 46.914967 -114.077820 132 3209ft 0kts
03-Nov-20 19:35 46.914966 -114.077819 132 3209ft 0kts
03-Nov-20 19:36 46.915074 -114.078482 278 3209ft 6kts
03-Nov-20 19:36 46.915288 -114.080326 278 3209ft 4kts
03-Nov-20 19:38 46.914923 -114.082235 220 3209ft 5kts
03-Nov-20 19:38 46.914128 -114.084585 305 3209ft 14kts
03-Nov-20 19:40 46.922310 -114.098648 313 3209ft 30kts
03-Nov-20 19:40 46.925279 -114.103696 310 3209ft 16kts
03-Nov-20 19:41 46.925627 -114.105296 219 3209ft 0kts
03-Nov-20 19:42 46.925627 -114.105296 219 3209ft 0kts
03-Nov-20 19:43 46.925409 -114.105559 219 3209ft 4kts
03-Nov-20 19:44 46.925028 -114.106020 213 3209ft 0kts
03-Nov-20 19:45 46.906728 -114.085029 175 3673ft 162kts
03-Nov-20 19:46 46.860542 -114.101810 166 6416ft 187kts
03-Nov-20 19:47 46.808166 -114.079129 169 9330ft 193kts
03-Nov-20 19:48 46.744619 -114.056657 170 9991ft 277kts
03-Nov-20 19:49 46.703447 -113.978356 61 10009ft 303kts
03-Nov-20 19:50 46.763986 -113.987088 292 11253ft 262kts
03-Nov-20 19:51 46.799235 -114.072747 298 14575ft 233kts
03-Nov-20 19:52 46.834912 -114.153347 297 14988ft 225kts
03-Nov-20 19:53 46.871171 -114.237718 298 14995ft 280kts
03-Nov-20 19:54 46.914433 -114.338885 297 14990ft 289kts
03-Nov-20 19:55 46.953435 -114.430350 295 17970ft 224kts
03-Nov-20 19:56 46.979474 -114.491746 291 21053ft 164kts
03-Nov-20 19:57 47.003103 -114.548022 290 22731ft 163kts
03-Nov-20 19:58 47.028212 -114.607911 291 23064ft 183kts
03-Nov-20 19:59 47.060269 -114.684668 293 23074ft 256kts
03-Nov-20 20:00 47.101562 -114.783101 294 23070ft 305kts
03-Nov-20 20:01 47.146819 -114.891296 294 23063ft 313kts
03-Nov-20 20:02 47.190236 -114.995306 293 24410ft 253kts
03-Nov-20 20:03 47.218753 -115.063915 290 26538ft 173kts
03-Nov-20 20:04 47.243315 -115.123709 291 27058ft 169kts
03-Nov-20 20:05 47.267467 -115.182475 292 27496ft 167kts
03-Nov-20 20:06 47.291941 -115.241966 292 28532ft 171kts
03-Nov-20 20:07 47.316503 -115.301713 292 29734ft 169kts
03-Nov-20 20:08 47.340696 -115.360750 292 30798ft 170kts
03-Nov-20 20:09 47.365180 -115.420617 292 31754ft 172kts
03-Nov-20 20:10 47.390124 -115.481757 293 32628ft 175kts
03-Nov-20 20:11 47.415284 -115.543504 292 33552ft 172kts
03-Nov-20 20:12 47.439857 -115.604004 292 34331ft 173kts
03-Nov-20 20:13 47.453055 -115.667930 263 35091ft 167kts
03-Nov-20 20:14 47.444998 -115.736295 263 35794ft 170kts
03-Nov-20 20:15 47.436416 -115.805733 262 36436ft 173kts
03-Nov-20 20:16 47.427452 -115.876352 262 37039ft 176kts
03-Nov-20 20:17 47.418212 -115.948265 262 37600ft 180kts
03-Nov-20 20:18 47.408756 -116.021315 262 38124ft 183kts
03-Nov-20 20:19 47.399154 -116.094963 262 38729ft 180kts
03-Nov-20 20:20 47.389726 -116.167003 262 39198ft 180kts
03-Nov-20 20:21 47.380099 -116.240051 262 39604ft 182kts
03-Nov-20 20:22 47.370375 -116.313492 262 39954ft 184kts
03-Nov-20 20:23 47.360442 -116.388146 262 40071ft 189kts
03-Nov-20 20:24 47.349754 -116.468011 262 40071ft 209kts
03-Nov-20 20:25 47.337925 -116.555895 262 40069ft 227kts
03-Nov-20 20:26 47.325117 -116.650391 261 40067ft 244kts
03-Nov-20 20:27 47.311058 -116.753486 261 40083ft 260kts
03-Nov-20 20:28 47.296194 -116.861610 261 40091ft 274kts
03-Nov-20 20:29 47.280612 -116.974144 261 40096ft 285kts
03-Nov-20 20:30 47.264483 -117.089825 261 40097ft 292kts
03-Nov-20 20:31 47.247913 -117.207600 261 40085ft 296kts
03-Nov-20 20:32 47.230983 -117.327024 261 40061ft 299kts
03-Nov-20 20:33 47.213819 -117.447113 261 40046ft 301kts
03-Nov-20 20:34 47.196493 -117.567469 261 40040ft 302kts
03-Nov-20 20:35 47.178950 -117.688267 260 40055ft 302kts
03-Nov-20 20:36 47.161024 -117.810747 260 40052ft 304kts
03-Nov-20 20:37 47.142922 -117.933613 260 40047ft 306kts
03-Nov-20 20:38 47.141874 -118.056498 274 40045ft 304kts
03-Nov-20 20:39 47.149295 -118.180366 274 40043ft 304kts
03-Nov-20 20:40 47.156536 -118.303766 274 40041ft 304kts
03-Nov-20 20:41 47.163641 -118.427405 274 40039ft 303kts
03-Nov-20 20:42 47.170595 -118.550465 274 40038ft 303kts
03-Nov-20 20:43 47.177441 -118.674126 273 40048ft 303kts
03-Nov-20 20:44 47.184220 -118.799019 273 40049ft 304kts
03-Nov-20 20:45 47.190935 -118.925076 273 40047ft 305kts
03-Nov-20 20:46 47.197487 -119.050546 272 40044ft 306kts
03-Nov-20 20:47 47.203818 -119.175237 273 40043ft 306kts
03-Nov-20 20:48 47.210028 -119.300056 273 40041ft 306kts
03-Nov-20 20:49 47.205140 -119.424767 266 40039ft 305kts
03-Nov-20 20:50 47.198488 -119.548928 266 40037ft 304kts
03-Nov-20 20:51 47.191686 -119.672823 265 40047ft 304kts
03-Nov-20 20:52 47.184533 -119.800614 265 40048ft 306kts
03-Nov-20 20:53 47.177362 -119.926123 265 40046ft 307kts
03-Nov-20 20:54 47.170076 -120.051351 265 40044ft 307kts
03-Nov-20 20:55 47.162627 -120.176867 265 40043ft 307kts
03-Nov-20 20:56 47.155042 -120.302330 265 40041ft 306kts
03-Nov-20 20:57 47.147368 -120.426929 265 40039ft 306kts
03-Nov-20 20:58 47.139560 -120.551619 265 40037ft 305kts
03-Nov-20 20:59 47.131603 -120.676262 265 39525ft 319kts
03-Nov-20 21:00 47.122550 -120.815825 265 37596ft 340kts
03-Nov-20 21:01 47.112979 -120.960552 265 35574ft 342kts
03-Nov-20 21:02 47.103403 -121.102858 264 33404ft 338kts
03-Nov-20 21:03 47.093937 -121.241107 263 31247ft 337kts
03-Nov-20 21:04 47.084363 -121.377642 262 29090ft 333kts
03-Nov-20 21:05 47.074869 -121.511142 262 26928ft 326kts
03-Nov-20 21:06 47.065895 -121.641755 262 24758ft 319kts
03-Nov-20 21:07 47.056907 -121.770151 261 23774ft 322kts
03-Nov-20 21:08 47.047783 -121.899177 261 21262ft 308kts
03-Nov-20 21:09 47.053549 -122.026822 285 18531ft 315kts
03-Nov-20 21:10 47.084692 -122.144996 285 15902ft 308kts
03-Nov-20 21:11 47.114025 -122.259160 285 13315ft 301kts
03-Nov-20 21:12 47.140451 -122.365417 285 10869ft 295kts
03-Nov-20 21:13 47.168115 -122.476608 285 9374ft 290kts
03-Nov-20 21:14 47.194128 -122.580747 285 7076ft 228kts
03-Nov-20 21:15 47.214885 -122.661887 285 4842ft 203kts
03-Nov-20 21:17 47.233329 -122.735827 285 3014ft 166kts
03-Nov-20 21:18 47.246025 -122.797153 247 2391ft 137kts
03-Nov-20 21:19 47.215567 -122.832018 205 2393ft 131kts
03-Nov-20 21:20 47.178476 -122.843132 193 2399ft 133kts
03-Nov-20 21:21 47.142384 -122.853700 193 2398ft 133kts
03-Nov-20 21:22 47.109645 -122.863288 194 2399ft 113kts
03-Nov-20 21:23 47.078509 -122.872505 193 2238ft 116kts
03-Nov-20 21:24 47.048169 -122.881395 194 1673ft 108kts
03-Nov-20 21:25 47.021469 -122.889096 193 1135ft 87kts
03-Nov-20 21:26 46.997527 -122.896061 193 689ft 83kts
03-Nov-20 21:27 46.973200 -122.903294 192 211ft 61kts
03-Nov-20 21:28 46.967463 -122.904799 143 211ft 9kts
03-Nov-20 21:29 46.967231 -122.903516 90 211ft 1kts
03-Nov-20 21:30 46.967968 -122.900865 13 211ft 12kts
03-Nov-20 21:31 46.970427 -122.899661 45 211ft 10kts
03-Nov-20 21:32 46.973176 -122.896899 319 211ft 17kts
03-Nov-20 21:33 46.976721 -122.899139 342 211ft 2kts

Navigation Log

Ident Type
Flight plan parsing failed, navigation log unavailable